sensor_id;sensor_type;location;lat;lon;timestamp;pressure;altitude;pressure_sealevel;temperature;humidity
57234;BME280;43090;52.604;13.318;2023-03-13T00:01:51;100077.56;;;4.38;100.00
57234;BME280;43090;52.604;13.318;2023-03-13T00:04:20;100075.28;;;4.31;100.00
57234;BME280;43090;52.604;13.318;2023-03-13T00:06:51;100081.22;;;4.35;100.00
57234;BME280;43090;52.604;13.318;2023-03-13T00:09:31;100077.66;;;4.36;100.00
57234;BME280;43090;52.604;13.318;2023-03-13T00:12:16;100076.09;;;4.48;100.00
57234;BME280;43090;52.604;13.318;2023-03-13T00:14:45;100074.81;;;4.39;100.00
57234;BME280;43090;52.604;13.318;2023-03-13T00:17:20;100064.75;;;4.46;100.00
57234;BME280;43090;52.604;13.318;2023-03-13T00:19:56;100066.09;;;4.53;100.00
57234;BME280;43090;52.604;13.318;2023-03-13T00:22:45;100071.50;;;4.52;100.00
57234;BME280;43090;52.604;13.318;2023-03-13T00:25:18;100066.69;;;4.58;100.00
57234;BME280;43090;52.604;13.318;2023-03-13T00:28:08;100061.91;;;4.49;100.00
57234;BME280;43090;52.604;13.318;2023-03-13T00:30:52;100060.72;;;4.55;100.00
57234;BME280;43090;52.604;13.318;2023-03-13T00:34:16;100048.09;;;4.74;100.00
57234;BME280;43090;52.604;13.318;2023-03-13T00:37:01;100045.50;;;4.58;100.00
57234;BME280;43090;52.604;13.318;2023-03-13T00:39:38;100052.13;;;4.65;100.00
57234;BME280;43090;52.604;13.318;2023-03-13T00:42:40;100040.84;;;4.78;100.00
57234;BME280;43090;52.604;13.318;2023-03-13T00:45:15;100032.84;;;4.94;100.00
57234;BME280;43090;52.604;13.318;2023-03-13T00:48:10;100031.13;;;4.93;100.00
57234;BME280;43090;52.604;13.318;2023-03-13T00:50:57;100027.03;;;4.87;100.00
57234;BME280;43090;52.604;13.318;2023-03-13T00:53:30;100025.31;;;4.86;100.00
57234;BME280;43090;52.604;13.318;2023-03-13T00:56:19;100023.84;;;4.96;100.00
57234;BME280;43090;52.604;13.318;2023-03-13T00:58:48;100024.16;;;4.76;100.00
57234;BME280;43090;52.604;13.318;2023-03-13T01:01:33;100017.28;;;4.88;100.00
57234;BME280;43090;52.604;13.318;2023-03-13T01:04:21;100019.28;;;4.98;100.00
57234;BME280;43090;52.604;13.318;2023-03-13T01:07:01;100016.84;;;5.10;100.00
57234;BME280;43090;52.604;13.318;2023-03-13T01:10:12;100014.78;;;5.15;100.00
57234;BME280;43090;52.604;13.318;2023-03-13T01:15:40;100007.97;;;5.11;100.00
57234;BME280;43090;52.604;13.318;2023-03-13T01:18:10;100002.34;;;5.15;100.00
57234;BME280;43090;52.604;13.318;2023-03-13T01:20:51;100000.47;;;5.17;100.00
57234;BME280;43090;52.604;13.318;2023-03-13T01:23:40;100012.50;;;5.09;100.00
57234;BME280;43090;52.604;13.318;2023-03-13T01:26:14;100010.78;;;5.08;100.00
57234;BME280;43090;52.604;13.318;2023-03-13T01:29:11;100018.41;;;5.28;100.00
57234;BME280;43090;52.604;13.318;2023-03-13T01:31:50;100020.22;;;5.28;100.00
57234;BME280;43090;52.604;13.318;2023-03-13T01:34:32;100010.25;;;5.31;100.00
57234;BME280;43090;52.604;13.318;2023-03-13T01:37:21;100017.84;;;5.38;100.00
57234;BME280;43090;52.604;13.318;2023-03-13T01:40:14;100020.75;;;5.33;100.00
57234;BME280;43090;52.604;13.318;2023-03-13T01:43:38;100005.59;;;5.35;100.00
57234;BME280;43090;52.604;13.318;2023-03-13T01:46:26;100000.28;;;5.21;100.00
57234;BME280;43090;52.604;13.318;2023-03-13T01:49:11;99997.44;;;5.38;100.00
57234;BME280;43090;52.604;13.318;2023-03-13T01:51:44;99991.75;;;5.30;100.00
57234;BME280;43090;52.604;13.318;2023-03-13T01:57:37;99980.56;;;5.39;100.00
57234;BME280;43090;52.604;13.318;2023-03-13T02:00:13;99977.66;;;5.29;100.00
57234;BME280;43090;52.604;13.318;2023-03-13T02:02:47;99985.53;;;4.86;100.00
57234;BME280;43090;52.604;13.318;2023-03-13T02:05:16;99965.84;;;5.05;100.00
57234;BME280;43090;52.604;13.318;2023-03-13T02:08:07;99965.50;;;5.25;100.00
57234;BME280;43090;52.604;13.318;2023-03-13T02:13:38;99951.75;;;5.33;100.00
57234;BME280;43090;52.604;13.318;2023-03-13T02:19:24;99939.72;;;5.42;100.00
57234;BME280;43090;52.604;13.318;2023-03-13T02:28:00;99943.31;;;5.41;100.00
57234;BME280;43090;52.604;13.318;2023-03-13T02:31:04;99933.09;;;5.34;100.00
57234;BME280;43090;52.604;13.318;2023-03-13T02:33:35;99926.53;;;5.40;100.00
57234;BME280;43090;52.604;13.318;2023-03-13T02:36:09;99923.88;;;5.40;100.00
57234;BME280;43090;52.604;13.318;2023-03-13T02:38:56;99924.16;;;5.36;100.00
57234;BME280;43090;52.604;13.318;2023-03-13T02:41:34;99915.03;;;5.40;100.00
57234;BME280;43090;52.604;13.318;2023-03-13T02:44:18;99918.94;;;5.34;100.00
57234;BME280;43090;52.604;13.318;2023-03-13T02:46:50;99918.69;;;5.39;100.00
57234;BME280;43090;52.604;13.318;2023-03-13T02:49:23;99914.97;;;5.27;100.00
57234;BME280;43090;52.604;13.318;2023-03-13T02:51:57;99902.06;;;5.35;100.00
57234;BME280;43090;52.604;13.318;2023-03-13T02:54:26;99897.22;;;5.42;100.00
57234;BME280;43090;52.604;13.318;2023-03-13T02:57:00;99891.94;;;5.42;100.00
57234;BME280;43090;52.604;13.318;2023-03-13T02:59:27;99894.78;;;5.39;100.00
57234;BME280;43090;52.604;13.318;2023-03-13T03:01:55;99893.06;;;5.52;100.00
57234;BME280;43090;52.604;13.318;2023-03-13T03:04:35;99894.84;;;5.51;100.00
57234;BME280;43090;52.604;13.318;2023-03-13T03:07:03;99885.47;;;5.46;100.00
57234;BME280;43090;52.604;13.318;2023-03-13T03:09:35;99876.63;;;5.60;100.00
57234;BME280;43090;52.604;13.318;2023-03-13T03:12:12;99870.31;;;5.48;100.00
57234;BME280;43090;52.604;13.318;2023-03-13T03:14:55;99868.22;;;5.53;100.00
57234;BME280;43090;52.604;13.318;2023-03-13T03:17:22;99870.41;;;5.46;100.00
57234;BME280;43090;52.604;13.318;2023-03-13T03:19:51;99866.97;;;5.59;100.00
57234;BME280;43090;52.604;13.318;2023-03-13T03:22:24;99866.09;;;5.58;100.00
57234;BME280;43090;52.604;13.318;2023-03-13T03:25:02;99868.34;;;5.64;100.00
57234;BME280;43090;52.604;13.318;2023-03-13T03:27:45;99862.16;;;5.37;100.00
57234;BME280;43090;52.604;13.318;2023-03-13T03:30:15;99863.19;;;5.34;100.00
57234;BME280;43090;52.604;13.318;2023-03-13T03:32:41;99861.03;;;5.26;100.00
57234;BME280;43090;52.604;13.318;2023-03-13T03:35:16;99867.47;;;5.37;100.00
57234;BME280;43090;52.604;13.318;2023-03-13T03:38:05;99864.59;;;5.40;100.00
57234;BME280;43090;52.604;13.318;2023-03-13T03:40:31;99854.28;;;5.49;100.00
57234;BME280;43090;52.604;13.318;2023-03-13T03:43:06;99853.91;;;5.41;100.00
57234;BME280;43090;52.604;13.318;2023-03-13T03:45:38;99858.13;;;5.58;100.00
57234;BME280;43090;52.604;13.318;2023-03-13T03:48:21;99848.25;;;5.60;100.00
57234;BME280;43090;52.604;13.318;2023-03-13T03:51:09;99844.44;;;5.64;100.00
57234;BME280;43090;52.604;13.318;2023-03-13T03:53:38;99835.78;;;5.48;100.00
57234;BME280;43090;52.604;13.318;2023-03-13T03:56:08;99828.72;;;5.61;100.00
57234;BME280;43090;52.604;13.318;2023-03-13T03:58:58;99824.84;;;5.53;100.00
57234;BME280;43090;52.604;13.318;2023-03-13T04:01:39;99827.19;;;5.72;100.00
57234;BME280;43090;52.604;13.318;2023-03-13T04:04:26;99812.72;;;5.48;100.00
57234;BME280;43090;52.604;13.318;2023-03-13T04:06:57;99812.84;;;5.47;100.00
57234;BME280;43090;52.604;13.318;2023-03-13T04:09:25;99805.00;;;5.58;100.00
57234;BME280;43090;52.604;13.318;2023-03-13T04:12:18;99811.53;;;5.67;100.00
57234;BME280;43090;52.604;13.318;2023-03-13T04:14:59;99787.34;;;5.72;100.00
57234;BME280;43090;52.604;13.318;2023-03-13T04:17:33;99798.63;;;5.48;100.00
57234;BME280;43090;52.604;13.318;2023-03-13T04:20:19;99792.72;;;5.57;100.00
57234;BME280;43090;52.604;13.318;2023-03-13T04:22:51;99791.88;;;5.70;100.00
57234;BME280;43090;52.604;13.318;2023-03-13T04:26:01;99779.75;;;5.38;100.00
57234;BME280;43090;52.604;13.318;2023-03-13T04:28:34;99777.72;;;5.56;100.00
57234;BME280;43090;52.604;13.318;2023-03-13T04:36:58;99762.28;;;5.76;100.00
57234;BME280;43090;52.604;13.318;2023-03-13T04:39:44;99761.56;;;5.59;100.00
57234;BME280;43090;52.604;13.318;2023-03-13T04:42:43;99758.13;;;5.72;100.00
57234;BME280;43090;52.604;13.318;2023-03-13T04:45:16;99755.97;;;5.64;100.00
57234;BME280;43090;52.604;13.318;2023-03-13T04:48:05;99739.19;;;5.63;100.00
57234;BME280;43090;52.604;13.318;2023-03-13T04:50:54;99729.03;;;5.83;100.00
57234;BME280;43090;52.604;13.318;2023-03-13T04:53:42;99729.84;;;5.71;100.00
57234;BME280;43090;52.604;13.318;2023-03-13T04:56:15;99723.28;;;5.76;100.00
57234;BME280;43090;52.604;13.318;2023-03-13T04:59:15;99717.66;;;5.81;100.00
57234;BME280;43090;52.604;13.318;2023-03-13T05:02:13;99722.06;;;5.55;100.00
57234;BME280;43090;52.604;13.318;2023-03-13T05:05:02;99710.63;;;5.67;100.00
57234;BME280;43090;52.604;13.318;2023-03-13T05:07:33;99703.75;;;5.77;100.00
57234;BME280;43090;52.604;13.318;2023-03-13T05:09:59;99698.63;;;5.74;100.00
57234;BME280;43090;52.604;13.318;2023-03-13T05:12:32;99689.03;;;5.59;100.00
57234;BME280;43090;52.604;13.318;2023-03-13T05:15:02;99685.16;;;5.77;100.00
57234;BME280;43090;52.604;13.318;2023-03-13T05:17:51;99676.13;;;5.80;100.00
57234;BME280;43090;52.604;13.318;2023-03-13T05:20:20;99674.53;;;5.90;100.00
57234;BME280;43090;52.604;13.318;2023-03-13T05:22:57;99675.38;;;5.65;100.00
57234;BME280;43090;52.604;13.318;2023-03-13T05:25:30;99669.53;;;5.32;100.00
57234;BME280;43090;52.604;13.318;2023-03-13T05:28:10;99664.69;;;5.39;100.00
57234;BME280;43090;52.604;13.318;2023-03-13T05:30:43;99667.03;;;5.57;100.00
57234;BME280;43090;52.604;13.318;2023-03-13T05:33:10;99656.84;;;5.63;100.00
57234;BME280;43090;52.604;13.318;2023-03-13T05:35:40;99655.19;;;5.62;100.00
57234;BME280;43090;52.604;13.318;2023-03-13T05:38:16;99653.38;;;5.76;100.00
57234;BME280;43090;52.604;13.318;2023-03-13T05:41:15;99648.38;;;5.84;100.00
57234;BME280;43090;52.604;13.318;2023-03-13T05:43:51;99640.63;;;5.81;100.00
57234;BME280;43090;52.604;13.318;2023-03-13T05:46:28;99638.72;;;5.83;100.00
57234;BME280;43090;52.604;13.318;2023-03-13T05:49:22;99628.72;;;5.87;100.00
57234;BME280;43090;52.604;13.318;2023-03-13T05:52:07;99628.84;;;5.85;100.00
57234;BME280;43090;52.604;13.318;2023-03-13T05:54:38;99620.22;;;5.81;100.00
57234;BME280;43090;52.604;13.318;2023-03-13T05:57:21;99610.03;;;5.62;100.00
57234;BME280;43090;52.604;13.318;2023-03-13T05:59:50;99608.44;;;5.86;100.00
57234;BME280;43090;52.604;13.318;2023-03-13T06:02:20;99609.47;;;5.70;100.00
57234;BME280;43090;52.604;13.318;2023-03-13T06:04:53;99600.25;;;5.76;100.00
57234;BME280;43090;52.604;13.318;2023-03-13T06:07:31;99602.50;;;5.69;100.00
57234;BME280;43090;52.604;13.318;2023-03-13T06:10:07;99603.53;;;5.79;100.00
57234;BME280;43090;52.604;13.318;2023-03-13T06:12:37;99585.47;;;5.84;100.00
57234;BME280;43090;52.604;13.318;2023-03-13T06:15:04;99586.63;;;5.93;100.00
57234;BME280;43090;52.604;13.318;2023-03-13T06:17:35;99585.72;;;6.07;100.00
57234;BME280;43090;52.604;13.318;2023-03-13T06:20:06;99577.50;;;6.10;100.00
57234;BME280;43090;52.604;13.318;2023-03-13T06:22:36;99573.13;;;5.96;100.00
57234;BME280;43090;52.604;13.318;2023-03-13T06:25:23;99562.22;;;6.14;100.00
57234;BME280;43090;52.604;13.318;2023-03-13T06:27:50;99558.56;;;6.15;100.00
57234;BME280;43090;52.604;13.318;2023-03-13T06:30:17;99553.59;;;5.97;100.00
57234;BME280;43090;52.604;13.318;2023-03-13T06:32:45;99542.22;;;5.95;100.00
57234;BME280;43090;52.604;13.318;2023-03-13T06:35:15;99540.00;;;5.89;100.00
57234;BME280;43090;52.604;13.318;2023-03-13T06:37:41;99534.91;;;5.86;100.00
57234;BME280;43090;52.604;13.318;2023-03-13T06:40:13;99535.09;;;5.96;100.00
57234;BME280;43090;52.604;13.318;2023-03-13T06:42:41;99516.63;;;6.07;100.00
57234;BME280;43090;52.604;13.318;2023-03-13T06:45:09;99513.50;;;6.13;100.00
57234;BME280;43090;52.604;13.318;2023-03-13T06:47:35;99509.78;;;6.16;100.00
57234;BME280;43090;52.604;13.318;2023-03-13T06:50:09;99505.25;;;6.05;100.00
57234;BME280;43090;52.604;13.318;2023-03-13T06:52:36;99487.72;;;6.27;100.00
57234;BME280;43090;52.604;13.318;2023-03-13T06:55:09;99480.09;;;6.22;100.00
57234;BME280;43090;52.604;13.318;2023-03-13T06:57:37;99491.75;;;6.32;100.00
57234;BME280;43090;52.604;13.318;2023-03-13T07:00:03;99480.38;;;6.30;100.00
57234;BME280;43090;52.604;13.318;2023-03-13T07:02:34;99477.41;;;6.35;100.00
57234;BME280;43090;52.604;13.318;2023-03-13T07:05:01;99476.00;;;6.29;100.00
57234;BME280;43090;52.604;13.318;2023-03-13T07:07:31;99482.91;;;6.32;100.00
57234;BME280;43090;52.604;13.318;2023-03-13T07:10:00;99482.72;;;6.35;100.00
57234;BME280;43090;52.604;13.318;2023-03-13T07:12:50;99484.47;;;6.23;100.00
57234;BME280;43090;52.604;13.318;2023-03-13T07:15:28;99490.06;;;6.31;100.00
57234;BME280;43090;52.604;13.318;2023-03-13T07:17:56;99474.00;;;6.33;100.00
57234;BME280;43090;52.604;13.318;2023-03-13T07:20:23;99468.63;;;6.46;100.00
57234;BME280;43090;52.604;13.318;2023-03-13T07:22:50;99458.69;;;6.48;100.00
57234;BME280;43090;52.604;13.318;2023-03-13T07:25:20;99459.28;;;6.40;100.00
57234;BME280;43090;52.604;13.318;2023-03-13T07:27:50;99456.97;;;6.36;100.00
57234;BME280;43090;52.604;13.318;2023-03-13T07:30:18;99467.19;;;6.05;100.00
57234;BME280;43090;52.604;13.318;2023-03-13T07:32:44;99454.34;;;6.23;100.00
57234;BME280;43090;52.604;13.318;2023-03-13T07:35:17;99445.59;;;6.33;100.00
57234;BME280;43090;52.604;13.318;2023-03-13T07:37:45;99449.00;;;6.36;100.00
57234;BME280;43090;52.604;13.318;2023-03-13T07:40:12;99433.94;;;6.47;100.00
57234;BME280;43090;52.604;13.318;2023-03-13T07:42:45;99440.28;;;6.33;100.00
57234;BME280;43090;52.604;13.318;2023-03-13T07:45:12;99435.00;;;6.45;100.00
57234;BME280;43090;52.604;13.318;2023-03-13T07:47:42;99428.25;;;6.52;100.00
57234;BME280;43090;52.604;13.318;2023-03-13T07:50:11;99421.34;;;6.74;100.00
57234;BME280;43090;52.604;13.318;2023-03-13T07:52:37;99409.19;;;6.58;100.00
57234;BME280;43090;52.604;13.318;2023-03-13T07:55:07;99409.75;;;6.39;100.00
57234;BME280;43090;52.604;13.318;2023-03-13T07:57:36;99400.38;;;6.69;100.00
57234;BME280;43090;52.604;13.318;2023-03-13T08:00:03;99406.28;;;6.61;100.00
57234;BME280;43090;52.604;13.318;2023-03-13T08:02:32;99402.59;;;6.75;100.00
57234;BME280;43090;52.604;13.318;2023-03-13T08:04:59;99400.19;;;6.48;100.00
57234;BME280;43090;52.604;13.318;2023-03-13T08:07:25;99389.75;;;6.58;100.00
57234;BME280;43090;52.604;13.318;2023-03-13T08:09:52;99388.66;;;6.60;100.00
57234;BME280;43090;52.604;13.318;2023-03-13T08:12:21;99393.69;;;6.52;100.00
57234;BME280;43090;52.604;13.318;2023-03-13T08:14:53;99393.94;;;6.49;100.00
57234;BME280;43090;52.604;13.318;2023-03-13T08:17:22;99389.34;;;6.51;100.00
57234;BME280;43090;52.604;13.318;2023-03-13T08:19:53;99378.81;;;6.49;100.00
57234;BME280;43090;52.604;13.318;2023-03-13T08:22:19;99372.19;;;6.55;100.00
57234;BME280;43090;52.604;13.318;2023-03-13T08:24:51;99376.28;;;6.48;100.00
57234;BME280;43090;52.604;13.318;2023-03-13T08:27:17;99366.91;;;6.31;100.00
57234;BME280;43090;52.604;13.318;2023-03-13T08:29:47;99364.56;;;6.50;100.00
57234;BME280;43090;52.604;13.318;2023-03-13T08:32:14;99353.28;;;6.36;100.00
57234;BME280;43090;52.604;13.318;2023-03-13T08:34:46;99351.16;;;6.52;100.00
57234;BME280;43090;52.604;13.318;2023-03-13T08:37:15;99350.97;;;6.78;100.00
57234;BME280;43090;52.604;13.318;2023-03-13T08:39:50;99348.06;;;6.92;100.00
57234;BME280;43090;52.604;13.318;2023-03-13T08:42:22;99346.97;;;7.06;100.00
57234;BME280;43090;52.604;13.318;2023-03-13T08:45:03;99353.03;;;6.86;100.00
57234;BME280;43090;52.604;13.318;2023-03-13T08:47:36;99346.59;;;6.65;100.00
57234;BME280;43090;52.604;13.318;2023-03-13T08:50:03;99340.44;;;6.88;100.00
57234;BME280;43090;52.604;13.318;2023-03-13T08:52:32;99340.81;;;6.94;100.00
57234;BME280;43090;52.604;13.318;2023-03-13T08:54:59;99334.91;;;6.91;100.00
57234;BME280;43090;52.604;13.318;2023-03-13T08:57:26;99320.72;;;7.13;100.00
57234;BME280;43090;52.604;13.318;2023-03-13T08:59:53;99320.97;;;7.21;100.00
57234;BME280;43090;52.604;13.318;2023-03-13T09:02:25;99314.91;;;7.30;100.00
57234;BME280;43090;52.604;13.318;2023-03-13T09:04:52;99315.16;;;7.05;100.00
57234;BME280;43090;52.604;13.318;2023-03-13T09:07:18;99304.63;;;6.92;100.00
57234;BME280;43090;52.604;13.318;2023-03-13T09:09:45;99303.31;;;6.97;100.00
57234;BME280;43090;52.604;13.318;2023-03-13T09:12:11;99302.91;;;7.25;100.00
57234;BME280;43090;52.604;13.318;2023-03-13T09:18:06;99297.72;;;7.23;100.00
57234;BME280;43090;52.604;13.318;2023-03-13T09:20:50;99293.97;;;7.37;100.00
57234;BME280;43090;52.604;13.318;2023-03-13T09:23:18;99298.78;;;7.43;100.00
57234;BME280;43090;52.604;13.318;2023-03-13T09:25:44;99300.38;;;7.23;100.00
57234;BME280;43090;52.604;13.318;2023-03-13T09:28:12;99299.50;;;7.45;100.00
57234;BME280;43090;52.604;13.318;2023-03-13T09:30:41;99297.44;;;7.49;100.00
57234;BME280;43090;52.604;13.318;2023-03-13T09:33:07;99297.84;;;7.33;100.00
57234;BME280;43090;52.604;13.318;2023-03-13T09:35:34;99306.81;;;7.21;100.00
57234;BME280;43090;52.604;13.318;2023-03-13T09:38:03;99300.91;;;7.17;100.00
57234;BME280;43090;52.604;13.318;2023-03-13T09:40:37;99297.22;;;7.41;100.00
57234;BME280;43090;52.604;13.318;2023-03-13T09:46:03;99293.16;;;7.58;100.00
57234;BME280;43090;52.604;13.318;2023-03-13T09:48:35;99292.59;;;7.54;100.00
57234;BME280;43090;52.604;13.318;2023-03-13T09:56:43;99274.72;;;7.45;100.00
57234;BME280;43090;52.604;13.318;2023-03-13T09:59:18;99269.97;;;7.48;100.00
57234;BME280;43090;52.604;13.318;2023-03-13T10:01:52;99266.94;;;7.53;100.00
57234;BME280;43090;52.604;13.318;2023-03-13T10:06:58;99279.22;;;7.65;100.00
57234;BME280;43090;52.604;13.318;2023-03-13T10:09:28;99272.34;;;7.63;100.00
57234;BME280;43090;52.604;13.318;2023-03-13T10:14:56;99257.41;;;7.39;100.00
57234;BME280;43090;52.604;13.318;2023-03-13T10:17:35;99267.88;;;7.63;100.00
57234;BME280;43090;52.604;13.318;2023-03-13T10:22:44;99259.16;;;7.50;100.00
57234;BME280;43090;52.604;13.318;2023-03-13T10:25:25;99265.88;;;7.77;100.00
57234;BME280;43090;52.604;13.318;2023-03-13T10:28:02;99262.38;;;7.97;100.00
57234;BME280;43090;52.604;13.318;2023-03-13T10:30:33;99257.66;;;8.22;100.00
57234;BME280;43090;52.604;13.318;2023-03-13T10:35:36;99236.78;;;8.48;100.00
57234;BME280;43090;52.604;13.318;2023-03-13T10:38:08;99238.47;;;8.49;100.00
57234;BME280;43090;52.604;13.318;2023-03-13T10:40:41;99254.38;;;8.40;100.00
57234;BME280;43090;52.604;13.318;2023-03-13T10:43:18;99244.63;;;8.29;100.00
57234;BME280;43090;52.604;13.318;2023-03-13T10:45:55;99233.09;;;8.71;100.00
57234;BME280;43090;52.604;13.318;2023-03-13T10:48:22;99220.91;;;8.88;100.00
57234;BME280;43090;52.604;13.318;2023-03-13T10:51:00;99218.97;;;8.99;100.00
57234;BME280;43090;52.604;13.318;2023-03-13T10:53:40;99220.59;;;9.22;100.00
57234;BME280;43090;52.604;13.318;2023-03-13T10:56:28;99224.66;;;9.06;100.00
57234;BME280;43090;52.604;13.318;2023-03-13T10:59:30;99218.59;;;9.14;100.00
57234;BME280;43090;52.604;13.318;2023-03-13T11:04:50;99200.81;;;9.63;100.00
57234;BME280;43090;52.604;13.318;2023-03-13T11:07:20;99204.03;;;9.57;100.00
57234;BME280;43090;52.604;13.318;2023-03-13T11:10:27;99201.22;;;9.69;100.00
57234;BME280;43090;52.604;13.318;2023-03-13T11:13:41;99208.91;;;10.21;100.00
57234;BME280;43090;52.604;13.318;2023-03-13T11:16:31;99206.84;;;9.85;100.00
57234;BME280;43090;52.604;13.318;2023-03-13T11:19:17;99192.88;;;10.11;100.00
57234;BME280;43090;52.604;13.318;2023-03-13T11:22:32;99189.16;;;10.41;100.00
57234;BME280;43090;52.604;13.318;2023-03-13T11:27:36;99203.25;;;10.33;100.00
57234;BME280;43090;52.604;13.318;2023-03-13T11:32:55;99188.22;;;10.13;100.00
57234;BME280;43090;52.604;13.318;2023-03-13T11:35:53;99183.31;;;9.98;100.00
57234;BME280;43090;52.604;13.318;2023-03-13T11:44:51;99186.69;;;10.00;100.00
57234;BME280;43090;52.604;13.318;2023-03-13T11:47:35;99175.09;;;10.29;100.00
57234;BME280;43090;52.604;13.318;2023-03-13T11:59:34;99165.44;;;10.09;100.00
57234;BME280;43090;52.604;13.318;2023-03-13T12:02:25;99166.19;;;9.91;100.00
57234;BME280;43090;52.604;13.318;2023-03-13T12:04:58;99178.09;;;10.64;100.00
57234;BME280;43090;52.604;13.318;2023-03-13T12:07:27;99166.91;;;10.96;100.00
57234;BME280;43090;52.604;13.318;2023-03-13T12:12:45;99160.41;;;10.81;100.00
57234;BME280;43090;52.604;13.318;2023-03-13T12:18:04;99142.44;;;11.09;100.00
57234;BME280;43090;52.604;13.318;2023-03-13T12:23:13;99158.28;;;9.99;100.00
57234;BME280;43090;52.604;13.318;2023-03-13T12:25:50;99155.03;;;10.81;100.00
57234;BME280;43090;52.604;13.318;2023-03-13T12:28:28;99155.38;;;10.68;100.00
57234;BME280;43090;52.604;13.318;2023-03-13T12:31:06;99145.88;;;11.02;100.00
57234;BME280;43090;52.604;13.318;2023-03-13T12:36:39;99141.69;;;11.17;100.00
57234;BME280;43090;52.604;13.318;2023-03-13T12:39:27;99134.50;;;11.36;100.00
57234;BME280;43090;52.604;13.318;2023-03-13T12:44:40;99125.97;;;10.58;100.00
57234;BME280;43090;52.604;13.318;2023-03-13T12:47:27;99120.72;;;11.30;100.00
57234;BME280;43090;52.604;13.318;2023-03-13T12:50:06;99120.56;;;11.50;100.00
57234;BME280;43090;52.604;13.318;2023-03-13T13:03:56;99120.13;;;11.37;100.00
57234;BME280;43090;52.604;13.318;2023-03-13T13:06:50;99115.28;;;12.03;100.00
57234;BME280;43090;52.604;13.318;2023-03-13T13:09:21;99105.25;;;12.13;100.00
57234;BME280;43090;52.604;13.318;2023-03-13T13:11:49;99108.78;;;12.13;100.00
57234;BME280;43090;52.604;13.318;2023-03-13T13:19:45;99100.03;;;11.85;100.00
57234;BME280;43090;52.604;13.318;2023-03-13T13:25:25;99088.31;;;12.12;100.00
57234;BME280;43090;52.604;13.318;2023-03-13T13:27:53;99092.19;;;12.18;100.00
57234;BME280;43090;52.604;13.318;2023-03-13T13:30:29;99079.97;;;12.58;100.00
57234;BME280;43090;52.604;13.318;2023-03-13T13:33:33;99099.56;;;11.90;95.95
57234;BME280;43090;52.604;13.318;2023-03-13T13:35:42;99083.13;;;12.11;100.00
57234;BME280;43090;52.604;13.318;2023-03-13T13:40:59;99082.88;;;12.90;100.00
57234;BME280;43090;52.604;13.318;2023-03-13T13:43:39;99066.47;;;13.34;100.00
57234;BME280;43090;52.604;13.318;2023-03-13T13:57:11;99078.38;;;12.90;98.97
57234;BME280;43090;52.604;13.318;2023-03-13T13:59:45;99073.53;;;12.43;97.36
57234;BME280;43090;52.604;13.318;2023-03-13T14:02:15;99073.47;;;12.86;98.30
57234;BME280;43090;52.604;13.318;2023-03-13T14:04:54;99076.38;;;13.00;97.51
57234;BME280;43090;52.604;13.318;2023-03-13T14:07:51;99073.16;;;11.95;89.55
57234;BME280;43090;52.604;13.318;2023-03-13T14:14:31;99059.41;;;12.41;92.96
57234;BME280;43090;52.604;13.318;2023-03-13T14:16:58;99050.97;;;12.78;93.91
57234;BME280;43090;52.604;13.318;2023-03-13T14:22:07;99052.50;;;13.06;96.53
57234;BME280;43090;52.604;13.318;2023-03-13T14:24:34;99070.06;;;12.67;94.81
57234;BME280;43090;52.604;13.318;2023-03-13T14:27:01;99059.25;;;13.10;95.01
57234;BME280;43090;52.604;13.318;2023-03-13T14:29:28;99058.41;;;13.34;95.84
57234;BME280;43090;52.604;13.318;2023-03-13T14:31:56;99056.66;;;12.75;90.24
57234;BME280;43090;52.604;13.318;2023-03-13T14:34:23;99065.53;;;12.59;91.54
57234;BME280;43090;52.604;13.318;2023-03-13T14:36:58;99055.00;;;12.82;93.08
57234;BME280;43090;52.604;13.318;2023-03-13T14:39:43;99054.53;;;12.95;95.79
57234;BME280;43090;52.604;13.318;2023-03-13T14:45:20;99045.81;;;13.18;95.94
57234;BME280;43090;52.604;13.318;2023-03-13T14:47:50;99033.56;;;13.57;95.95
57234;BME280;43090;52.604;13.318;2023-03-13T14:50:40;99042.56;;;13.89;95.02
57234;BME280;43090;52.604;13.318;2023-03-13T14:53:15;99033.72;;;13.30;90.01
57234;BME280;43090;52.604;13.318;2023-03-13T14:56:12;99034.03;;;13.11;95.12
57234;BME280;43090;52.604;13.318;2023-03-13T15:01:33;99034.91;;;13.11;96.16
57234;BME280;43090;52.604;13.318;2023-03-13T15:04:07;99023.97;;;12.88;95.88
57234;BME280;43090;52.604;13.318;2023-03-13T15:06:42;99017.16;;;12.35;90.71
57234;BME280;43090;52.604;13.318;2023-03-13T15:11:41;99018.41;;;12.81;97.49
57234;BME280;43090;52.604;13.318;2023-03-13T15:17:23;99013.72;;;13.08;97.30
57234;BME280;43090;52.604;13.318;2023-03-13T15:20:00;99003.63;;;13.27;94.97
57234;BME280;43090;52.604;13.318;2023-03-13T15:22:33;98995.28;;;13.22;90.58
57234;BME280;43090;52.604;13.318;2023-03-13T15:25:18;98993.06;;;12.84;92.87
57234;BME280;43090;52.604;13.318;2023-03-13T15:27:47;98994.56;;;13.28;94.94
57234;BME280;43090;52.604;13.318;2023-03-13T15:30:15;99000.13;;;13.18;96.16
57234;BME280;43090;52.604;13.318;2023-03-13T15:32:45;98986.03;;;13.16;87.31
57234;BME280;43090;52.604;13.318;2023-03-13T15:35:29;98989.63;;;12.32;88.95
57234;BME280;43090;52.604;13.318;2023-03-13T15:37:57;98977.47;;;12.96;96.26
57234;BME280;43090;52.604;13.318;2023-03-13T15:40:24;98983.50;;;12.65;93.05
57234;BME280;43090;52.604;13.318;2023-03-13T15:42:53;98983.66;;;12.88;97.09
57234;BME280;43090;52.604;13.318;2023-03-13T15:45:20;98975.31;;;12.91;98.23
57234;BME280;43090;52.604;13.318;2023-03-13T15:47:59;98972.25;;;12.61;92.41
57234;BME280;43090;52.604;13.318;2023-03-13T15:50:29;98963.19;;;12.71;95.31